sensor_id;sensor_type;location;lat;lon;timestamp;pressure;altitude;pressure_sealevel;temperature;humidity
25947;BME280;13745;51.470;9.894;2024-02-16T00:01:38;99099.25;;;12.22;86.05
25947;BME280;13745;51.470;9.894;2024-02-16T00:04:23;99088.84;;;12.22;86.07
25947;BME280;13745;51.470;9.894;2024-02-16T00:07:08;99088.00;;;12.21;85.82
25947;BME280;13745;51.470;9.894;2024-02-16T00:09:55;99076.75;;;12.21;85.91
25947;BME280;13745;51.470;9.894;2024-02-16T00:12:41;99065.53;;;12.20;85.65
25947;BME280;13745;51.470;9.894;2024-02-16T00:15:26;99074.16;;;12.21;85.73
25947;BME280;13745;51.470;9.894;2024-02-16T00:18:11;99065.47;;;12.22;85.60
25947;BME280;13745;51.470;9.894;2024-02-16T00:20:56;99064.63;;;12.21;85.82
25947;BME280;13745;51.470;9.894;2024-02-16T00:23:41;99065.47;;;12.22;85.57
25947;BME280;13745;51.470;9.894;2024-02-16T00:26:27;99056.88;;;12.20;85.55
25947;BME280;13745;51.470;9.894;2024-02-16T00:29:13;99066.38;;;12.21;85.64
25947;BME280;13745;51.470;9.894;2024-02-16T00:31:58;99062.13;;;12.18;85.71
25947;BME280;13745;51.470;9.894;2024-02-16T00:34:43;99071.59;;;12.19;85.71
25947;BME280;13745;51.470;9.894;2024-02-16T00:37:28;99072.56;;;12.17;85.54
25947;BME280;13745;51.470;9.894;2024-02-16T00:40:14;99065.59;;;12.17;85.26
25947;BME280;13745;51.470;9.894;2024-02-16T00:43:00;99063.88;;;12.16;85.13
25947;BME280;13745;51.470;9.894;2024-02-16T00:45:45;99064.75;;;12.17;84.76
25947;BME280;13745;51.470;9.894;2024-02-16T00:48:31;99067.38;;;12.15;85.25
25947;BME280;13745;51.470;9.894;2024-02-16T00:51:16;99077.00;;;12.12;85.02
25947;BME280;13745;51.470;9.894;2024-02-16T00:54:01;99064.09;;;12.08;84.84
25947;BME280;13745;51.470;9.894;2024-02-16T00:56:47;99060.59;;;12.08;85.08
25947;BME280;13745;51.470;9.894;2024-02-16T00:59:33;99065.00;;;12.06;85.06
25947;BME280;13745;51.470;9.894;2024-02-16T01:02:18;99057.28;;;12.03;85.04
25947;BME280;13745;51.470;9.894;2024-02-16T01:05:04;99059.94;;;12.01;85.12
25947;BME280;13745;51.470;9.894;2024-02-16T01:07:49;99050.44;;;12.00;84.77
25947;BME280;13745;51.470;9.894;2024-02-16T01:10:34;99035.72;;;11.99;84.89
25947;BME280;13745;51.470;9.894;2024-02-16T01:13:19;99027.13;;;11.97;84.95
25947;BME280;13745;51.470;9.894;2024-02-16T01:16:06;99033.19;;;11.96;84.80
25947;BME280;13745;51.470;9.894;2024-02-16T01:18:51;99043.63;;;11.95;84.69
25947;BME280;13745;51.470;9.894;2024-02-16T01:21:36;99035.88;;;11.93;84.62
25947;BME280;13745;51.470;9.894;2024-02-16T01:24:21;99047.13;;;11.94;84.54
25947;BME280;13745;51.470;9.894;2024-02-16T01:27:07;99038.47;;;11.93;84.79
25947;BME280;13745;51.470;9.894;2024-02-16T01:29:52;99048.91;;;11.92;84.62
25947;BME280;13745;51.470;9.894;2024-02-16T01:32:39;99056.72;;;11.92;84.77
25947;BME280;13745;51.470;9.894;2024-02-16T01:35:24;99058.41;;;11.91;84.31
25947;BME280;13745;51.470;9.894;2024-02-16T01:38:09;99060.22;;;11.89;84.34
25947;BME280;13745;51.470;9.894;2024-02-16T01:40:54;99062.03;;;11.86;84.40
25947;BME280;13745;51.470;9.894;2024-02-16T01:43:39;99056.88;;;11.84;84.46
25947;BME280;13745;51.470;9.894;2024-02-16T01:46:24;99040.47;;;11.82;84.28
25947;BME280;13745;51.470;9.894;2024-02-16T01:49:12;99038.81;;;11.78;84.33
25947;BME280;13745;51.470;9.894;2024-02-16T01:51:58;99045.75;;;11.77;84.35
25947;BME280;13745;51.470;9.894;2024-02-16T01:54:43;99030.22;;;11.76;84.42
25947;BME280;13745;51.470;9.894;2024-02-16T01:57:29;99038.84;;;11.76;84.37
25947;BME280;13745;51.470;9.894;2024-02-16T02:00:15;99030.16;;;11.77;84.23
25947;BME280;13745;51.470;9.894;2024-02-16T02:03:01;99036.19;;;11.79;84.05
25947;BME280;13745;51.470;9.894;2024-02-16T02:05:48;99028.38;;;11.81;84.06
25947;BME280;13745;51.470;9.894;2024-02-16T02:08:34;99034.41;;;11.81;83.89
25947;BME280;13745;51.470;9.894;2024-02-16T02:11:18;99026.63;;;11.81;83.86
25947;BME280;13745;51.470;9.894;2024-02-16T02:14:04;99027.47;;;11.82;83.97
25947;BME280;13745;51.470;9.894;2024-02-16T02:16:49;99025.69;;;11.86;84.03
25947;BME280;13745;51.470;9.894;2024-02-16T02:19:34;99017.75;;;11.90;83.80
25947;BME280;13745;51.470;9.894;2024-02-16T02:22:20;99021.22;;;11.91;83.66
25947;BME280;13745;51.470;9.894;2024-02-16T02:25:06;99005.63;;;11.91;83.84
25947;BME280;13745;51.470;9.894;2024-02-16T02:27:54;98998.69;;;11.91;83.67
25947;BME280;13745;51.470;9.894;2024-02-16T02:30:39;98997.78;;;11.94;83.43
25947;BME280;13745;51.470;9.894;2024-02-16T02:33:24;99001.22;;;11.94;83.65
25947;BME280;13745;51.470;9.894;2024-02-16T02:36:10;99000.28;;;11.97;83.51
25947;BME280;13745;51.470;9.894;2024-02-16T02:38:56;98991.53;;;12.01;83.47
25947;BME280;13745;51.470;9.894;2024-02-16T02:41:41;98987.16;;;12.03;83.34
25947;BME280;13745;51.470;9.894;2024-02-16T02:44:26;98993.09;;;12.06;83.19
25947;BME280;13745;51.470;9.894;2024-02-16T02:47:12;99001.75;;;12.07;83.44
25947;BME280;13745;51.470;9.894;2024-02-16T02:49:58;98994.00;;;12.05;83.14
25947;BME280;13745;51.470;9.894;2024-02-16T02:52:43;98987.09;;;12.04;83.25
25947;BME280;13745;51.470;9.894;2024-02-16T02:55:30;98975.81;;;12.05;83.21
25947;BME280;13745;51.470;9.894;2024-02-16T02:58:15;98971.53;;;12.04;83.23
25947;BME280;13745;51.470;9.894;2024-02-16T03:01:01;98967.97;;;12.07;83.16
25947;BME280;13745;51.470;9.894;2024-02-16T03:03:46;98967.97;;;12.08;83.24
25947;BME280;13745;51.470;9.894;2024-02-16T03:06:31;98972.25;;;12.09;83.18
25947;BME280;13745;51.470;9.894;2024-02-16T03:09:17;98971.38;;;12.11;83.28
25947;BME280;13745;51.470;9.894;2024-02-16T03:12:04;98966.22;;;12.09;82.97
25947;BME280;13745;51.470;9.894;2024-02-16T03:14:49;98958.47;;;12.06;83.14
25947;BME280;13745;51.470;9.894;2024-02-16T03:17:34;98963.63;;;12.09;82.94
25947;BME280;13745;51.470;9.894;2024-02-16T03:20:19;98959.28;;;12.09;83.10
25947;BME280;13745;51.470;9.894;2024-02-16T03:23:05;98945.44;;;12.09;83.09
25947;BME280;13745;51.470;9.894;2024-02-16T03:25:49;98960.13;;;12.10;83.06
25947;BME280;13745;51.470;9.894;2024-02-16T03:28:36;98965.38;;;12.07;82.90
25947;BME280;13745;51.470;9.894;2024-02-16T03:31:23;98951.59;;;12.05;82.99
25947;BME280;13745;51.470;9.894;2024-02-16T03:34:08;98962.81;;;12.05;82.87
25947;BME280;13745;51.470;9.894;2024-02-16T03:36:53;98958.56;;;12.03;82.79
25947;BME280;13745;51.470;9.894;2024-02-16T03:39:39;98975.91;;;12.02;82.83
25947;BME280;13745;51.470;9.894;2024-02-16T03:42:24;98959.53;;;12.00;82.73
25947;BME280;13745;51.470;9.894;2024-02-16T03:45:10;98969.06;;;11.98;83.05
25947;BME280;13745;51.470;9.894;2024-02-16T03:47:55;98969.97;;;11.97;82.98
25947;BME280;13745;51.470;9.894;2024-02-16T03:50:40;98975.22;;;11.96;83.12
25947;BME280;13745;51.470;9.894;2024-02-16T03:53:25;98969.25;;;11.92;82.96
25947;BME280;13745;51.470;9.894;2024-02-16T03:56:11;98970.19;;;11.88;83.10
25947;BME280;13745;51.470;9.894;2024-02-16T03:58:56;98961.66;;;11.85;83.20
25947;BME280;13745;51.470;9.894;2024-02-16T04:01:42;98959.06;;;11.83;83.06
25947;BME280;13745;51.470;9.894;2024-02-16T04:04:28;98959.97;;;11.82;83.10
25947;BME280;13745;51.470;9.894;2024-02-16T04:07:13;98963.44;;;11.81;83.02
25947;BME280;13745;51.470;9.894;2024-02-16T04:09:58;98964.31;;;11.81;83.32
25947;BME280;13745;51.470;9.894;2024-02-16T04:12:45;98960.88;;;11.79;83.30
25947;BME280;13745;51.470;9.894;2024-02-16T04:15:30;98965.22;;;11.79;83.40
25947;BME280;13745;51.470;9.894;2024-02-16T04:18:16;98960.09;;;11.76;83.21
25947;BME280;13745;51.470;9.894;2024-02-16T04:21:02;98956.66;;;11.74;83.45
25947;BME280;13745;51.470;9.894;2024-02-16T04:23:48;98966.16;;;11.75;83.30
25947;BME280;13745;51.470;9.894;2024-02-16T04:26:33;98967.03;;;11.75;83.58
25947;BME280;13745;51.470;9.894;2024-02-16T04:29:18;98971.34;;;11.76;83.51
25947;BME280;13745;51.470;9.894;2024-02-16T04:32:03;98969.66;;;11.74;83.52
25947;BME280;13745;51.470;9.894;2024-02-16T04:34:50;98965.41;;;11.71;83.54
25947;BME280;13745;51.470;9.894;2024-02-16T04:37:35;98965.50;;;11.68;83.57
25947;BME280;13745;51.470;9.894;2024-02-16T04:40:20;98965.53;;;11.67;83.45
25947;BME280;13745;51.470;9.894;2024-02-16T04:43:05;98960.34;;;11.67;83.67
25947;BME280;13745;51.470;9.894;2024-02-16T04:45:50;98967.22;;;11.68;83.64
25947;BME280;13745;51.470;9.894;2024-02-16T04:48:35;98964.59;;;11.69;83.56
25947;BME280;13745;51.470;9.894;2024-02-16T04:51:21;98958.47;;;11.72;83.19
25947;BME280;13745;51.470;9.894;2024-02-16T04:54:07;98959.28;;;11.74;83.25
25947;BME280;13745;51.470;9.894;2024-02-16T04:56:52;98957.47;;;11.77;83.32
25947;BME280;13745;51.470;9.894;2024-02-16T04:59:36;98965.19;;;11.80;83.13
25947;BME280;13745;51.470;9.894;2024-02-16T05:02:21;98963.41;;;11.82;83.22
25947;BME280;13745;51.470;9.894;2024-02-16T05:05:07;98967.59;;;11.88;82.69
25947;BME280;13745;51.470;9.894;2024-02-16T05:07:53;98953.69;;;11.91;82.83
25947;BME280;13745;51.470;9.894;2024-02-16T05:10:38;98963.97;;;11.95;82.84
25947;BME280;13745;51.470;9.894;2024-02-16T05:13:23;98965.56;;;11.99;82.63
25947;BME280;13745;51.470;9.894;2024-02-16T05:16:10;98960.38;;;11.99;82.64
25947;BME280;13745;51.470;9.894;2024-02-16T05:18:55;98954.31;;;12.00;82.75
25947;BME280;13745;51.470;9.894;2024-02-16T05:21:41;98960.28;;;12.04;83.01
25947;BME280;13745;51.470;9.894;2024-02-16T05:24:27;98965.38;;;12.07;82.68
25947;BME280;13745;51.470;9.894;2024-02-16T05:27:13;98965.44;;;12.05;82.69
25947;BME280;13745;51.470;9.894;2024-02-16T05:29:58;98956.75;;;12.06;82.61
25947;BME280;13745;51.470;9.894;2024-02-16T05:32:43;98955.88;;;12.06;82.68
25947;BME280;13745;51.470;9.894;2024-02-16T05:35:28;98953.38;;;12.03;82.64
25947;BME280;13745;51.470;9.894;2024-02-16T05:38:17;98957.69;;;12.04;82.58
25947;BME280;13745;51.470;9.894;2024-02-16T05:41:17;98949.97;;;12.01;82.54
25947;BME280;13745;51.470;9.894;2024-02-16T05:44:02;98957.72;;;12.02;82.64
25947;BME280;13745;51.470;9.894;2024-02-16T05:46:48;98942.09;;;12.04;82.64
25947;BME280;13745;51.470;9.894;2024-02-16T05:49:33;98947.25;;;12.05;82.73
25947;BME280;13745;51.470;9.894;2024-02-16T05:52:18;98938.59;;;12.05;82.63
25947;BME280;13745;51.470;9.894;2024-02-16T05:55:05;98944.66;;;12.05;82.42
25947;BME280;13745;51.470;9.894;2024-02-16T05:57:52;98942.91;;;12.06;82.50
25947;BME280;13745;51.470;9.894;2024-02-16T06:00:37;98950.66;;;12.07;82.66
25947;BME280;13745;51.470;9.894;2024-02-16T06:03:22;98941.16;;;12.06;82.29
25947;BME280;13745;51.470;9.894;2024-02-16T06:06:07;98940.31;;;12.06;82.39
25947;BME280;13745;51.470;9.894;2024-02-16T06:08:53;98960.19;;;12.07;82.55
25947;BME280;13745;51.470;9.894;2024-02-16T06:11:38;98956.69;;;12.08;82.50
25947;BME280;13745;51.470;9.894;2024-02-16T06:14:24;98951.53;;;12.06;82.62
25947;BME280;13745;51.470;9.894;2024-02-16T06:17:10;98956.69;;;12.08;82.23
25947;BME280;13745;51.470;9.894;2024-02-16T06:19:55;98948.88;;;12.09;82.45
25947;BME280;13745;51.470;9.894;2024-02-16T06:22:40;98956.63;;;12.11;82.21
25947;BME280;13745;51.470;9.894;2024-02-16T06:25:25;98955.69;;;12.14;82.24
25947;BME280;13745;51.470;9.894;2024-02-16T06:28:10;98954.75;;;12.16;82.26
25947;BME280;13745;51.470;9.894;2024-02-16T06:30:56;98952.94;;;12.20;82.03
25947;BME280;13745;51.470;9.894;2024-02-16T06:33:42;98954.63;;;12.21;82.11
25947;BME280;13745;51.470;9.894;2024-02-16T06:36:27;98964.97;;;12.22;82.33
25947;BME280;13745;51.470;9.894;2024-02-16T06:39:12;98962.38;;;12.22;82.28
25947;BME280;13745;51.470;9.894;2024-02-16T06:42:03;98961.53;;;12.22;82.25
25947;BME280;13745;51.470;9.894;2024-02-16T06:44:48;98971.88;;;12.23;82.00
25947;BME280;13745;51.470;9.894;2024-02-16T06:47:35;98975.31;;;12.24;82.21
25947;BME280;13745;51.470;9.894;2024-02-16T06:50:20;98991.72;;;12.27;81.93
25947;BME280;13745;51.470;9.894;2024-02-16T06:53:05;98989.06;;;12.29;81.81
25947;BME280;13745;51.470;9.894;2024-02-16T06:55:50;98991.63;;;12.30;81.66
25947;BME280;13745;51.470;9.894;2024-02-16T06:58:35;98989.88;;;12.31;81.75
25947;BME280;13745;51.470;9.894;2024-02-16T07:01:20;98987.28;;;12.31;81.98
25947;BME280;13745;51.470;9.894;2024-02-16T07:04:07;98988.16;;;12.30;82.05
25947;BME280;13745;51.470;9.894;2024-02-16T07:06:53;98982.13;;;12.29;82.16
25947;BME280;13745;51.470;9.894;2024-02-16T07:09:38;98990.00;;;12.26;82.32
25947;BME280;13745;51.470;9.894;2024-02-16T07:12:22;99001.31;;;12.25;82.32
25947;BME280;13745;51.470;9.894;2024-02-16T07:15:08;98989.16;;;12.24;82.40
25947;BME280;13745;51.470;9.894;2024-02-16T07:17:53;98986.66;;;12.21;82.17
25947;BME280;13745;51.470;9.894;2024-02-16T07:20:40;98987.56;;;12.20;82.30
25947;BME280;13745;51.470;9.894;2024-02-16T07:23:25;98984.88;;;12.23;82.26
25947;BME280;13745;51.470;9.894;2024-02-16T07:26:10;99000.44;;;12.25;82.14
25947;BME280;13745;51.470;9.894;2024-02-16T07:28:55;98997.88;;;12.23;82.16
25947;BME280;13745;51.470;9.894;2024-02-16T07:31:40;98994.25;;;12.29;81.96
25947;BME280;13745;51.470;9.894;2024-02-16T07:34:25;99003.69;;;12.33;82.01
25947;BME280;13745;51.470;9.894;2024-02-16T07:37:13;98995.81;;;12.36;81.93
25947;BME280;13745;51.470;9.894;2024-02-16T07:39:59;99000.88;;;12.41;81.80
25947;BME280;13745;51.470;9.894;2024-02-16T07:42:44;99001.50;;;12.49;81.91
25947;BME280;13745;51.470;9.894;2024-02-16T07:45:29;98997.00;;;12.55;81.99
25947;BME280;13745;51.470;9.894;2024-02-16T07:48:14;99008.13;;;12.60;81.43
25947;BME280;13745;51.470;9.894;2024-02-16T07:50:59;99007.19;;;12.63;81.64
25947;BME280;13745;51.470;9.894;2024-02-16T07:53:47;99007.09;;;12.68;81.52
25947;BME280;13745;51.470;9.894;2024-02-16T07:56:32;99012.19;;;12.71;81.24
25947;BME280;13745;51.470;9.894;2024-02-16T07:59:18;99007.84;;;12.71;81.19
25947;BME280;13745;51.470;9.894;2024-02-16T08:02:03;99009.59;;;12.71;81.11
25947;BME280;13745;51.470;9.894;2024-02-16T08:04:49;99014.84;;;12.69;81.19
25947;BME280;13745;51.470;9.894;2024-02-16T08:07:34;99021.84;;;12.67;80.86
25947;BME280;13745;51.470;9.894;2024-02-16T08:10:20;99012.28;;;12.68;81.31
25947;BME280;13745;51.470;9.894;2024-02-16T08:13:06;99016.63;;;12.67;81.16
25947;BME280;13745;51.470;9.894;2024-02-16T08:15:51;99021.91;;;12.64;81.23
25947;BME280;13745;51.470;9.894;2024-02-16T08:18:36;99009.94;;;12.57;81.35
25947;BME280;13745;51.470;9.894;2024-02-16T08:21:22;99019.56;;;12.55;81.51
25947;BME280;13745;51.470;9.894;2024-02-16T08:24:07;99024.75;;;12.55;81.67
25947;BME280;13745;51.470;9.894;2024-02-16T08:26:54;99018.59;;;12.59;81.64
25947;BME280;13745;51.470;9.894;2024-02-16T08:29:40;99026.25;;;12.63;81.46
25947;BME280;13745;51.470;9.894;2024-02-16T08:32:25;99026.94;;;12.70;81.23
25947;BME280;13745;51.470;9.894;2024-02-16T08:35:10;99027.38;;;12.86;81.24
25947;BME280;13745;51.470;9.894;2024-02-16T08:37:58;99040.56;;;13.09;80.75
25947;BME280;13745;51.470;9.894;2024-02-16T08:40:43;99030.25;;;13.36;80.25
25947;BME280;13745;51.470;9.894;2024-02-16T08:43:29;99031.03;;;13.67;79.82
25947;BME280;13745;51.470;9.894;2024-02-16T08:46:14;99021.22;;;14.02;78.75
25947;BME280;13745;51.470;9.894;2024-02-16T08:48:59;99031.28;;;14.38;77.89
25947;BME280;13745;51.470;9.894;2024-02-16T08:51:44;99028.28;;;14.75;77.53
25947;BME280;13745;51.470;9.894;2024-02-16T08:54:29;99032.84;;;15.16;76.59
25947;BME280;13745;51.470;9.894;2024-02-16T08:57:14;99026.66;;;15.64;75.27
25947;BME280;13745;51.470;9.894;2024-02-16T09:00:00;99029.63;;;16.19;74.02
25947;BME280;13745;51.470;9.894;2024-02-16T09:02:47;99032.78;;;16.89;72.64
25947;BME280;13745;51.470;9.894;2024-02-16T09:05:32;99036.19;;;17.47;71.16
25947;BME280;13745;51.470;9.894;2024-02-16T09:08:17;99022.59;;;18.11;69.98
25947;BME280;13745;51.470;9.894;2024-02-16T09:11:02;99008.00;;;19.55;67.08
25947;BME280;13745;51.470;9.894;2024-02-16T09:13:49;99011.28;;;21.22;62.80
25947;BME280;13745;51.470;9.894;2024-02-16T09:16:35;99014.88;;;22.94;59.12
25947;BME280;13745;51.470;9.894;2024-02-16T09:19:20;99014.78;;;24.52;55.34
25947;BME280;13745;51.470;9.894;2024-02-16T09:22:05;99014.94;;;23.05;57.32
25947;BME280;13745;51.470;9.894;2024-02-16T09:24:50;99012.69;;;20.85;61.10
25947;BME280;13745;51.470;9.894;2024-02-16T09:27:36;99009.69;;;19.25;64.02
25947;BME280;13745;51.470;9.894;2024-02-16T09:30:24;99017.59;;;18.07;66.81
25947;BME280;13745;51.470;9.894;2024-02-16T09:33:10;99015.19;;;17.30;68.48
25947;BME280;13745;51.470;9.894;2024-02-16T09:35:55;99018.66;;;16.72;69.72
25947;BME280;13745;51.470;9.894;2024-02-16T09:38:40;99036.06;;;16.33;70.81
25947;BME280;13745;51.470;9.894;2024-02-16T09:41:25;99032.44;;;16.15;71.22
25947;BME280;13745;51.470;9.894;2024-02-16T09:44:12;99033.31;;;15.93;71.59
25947;BME280;13745;51.470;9.894;2024-02-16T09:46:59;99037.53;;;15.76;71.93
25947;BME280;13745;51.470;9.894;2024-02-16T09:49:48;99047.44;;;15.67;72.20
25947;BME280;13745;51.470;9.894;2024-02-16T09:52:33;99042.47;;;15.60;72.23
25947;BME280;13745;51.470;9.894;2024-02-16T09:55:19;99039.25;;;15.53;72.32
25947;BME280;13745;51.470;9.894;2024-02-16T09:58:04;99043.75;;;15.50;72.48
25947;BME280;13745;51.470;9.894;2024-02-16T10:00:50;99052.44;;;15.50;72.56
25947;BME280;13745;51.470;9.894;2024-02-16T10:03:36;99041.16;;;15.50;72.44
25947;BME280;13745;51.470;9.894;2024-02-16T10:06:23;99043.91;;;15.45;72.77
25947;BME280;13745;51.470;9.894;2024-02-16T10:09:08;99041.25;;;15.46;72.53
25947;BME280;13745;51.470;9.894;2024-02-16T10:11:55;99042.91;;;15.49;72.84
25947;BME280;13745;51.470;9.894;2024-02-16T10:14:40;99043.47;;;15.57;72.57
25947;BME280;13745;51.470;9.894;2024-02-16T10:17:26;99042.28;;;15.66;72.21
25947;BME280;13745;51.470;9.894;2024-02-16T10:20:17;99051.59;;;15.73;72.28
25947;BME280;13745;51.470;9.894;2024-02-16T10:23:05;99034.91;;;15.76;72.26
25947;BME280;13745;51.470;9.894;2024-02-16T10:25:51;99039.78;;;15.85;72.43
25947;BME280;13745;51.470;9.894;2024-02-16T10:28:36;99045.53;;;15.93;71.88
25947;BME280;13745;51.470;9.894;2024-02-16T10:31:23;99035.38;;;16.07;71.76
25947;BME280;13745;51.470;9.894;2024-02-16T10:34:12;99036.38;;;16.25;71.18
25947;BME280;13745;51.470;9.894;2024-02-16T10:36:58;99028.84;;;16.38;70.65
25947;BME280;13745;51.470;9.894;2024-02-16T10:39:45;99027.16;;;16.57;70.12
25947;BME280;13745;51.470;9.894;2024-02-16T10:42:34;99032.91;;;16.65;69.75
25947;BME280;13745;51.470;9.894;2024-02-16T10:45:21;99027.53;;;16.68;69.74
25947;BME280;13745;51.470;9.894;2024-02-16T10:48:07;99034.81;;;16.82;69.52
25947;BME280;13745;51.470;9.894;2024-02-16T10:50:53;99025.44;;;16.97;68.87
25947;BME280;13745;51.470;9.894;2024-02-16T10:53:41;99011.41;;;17.17;68.43
25947;BME280;13745;51.470;9.894;2024-02-16T10:56:32;99030.50;;;17.56;67.39
25947;BME280;13745;51.470;9.894;2024-02-16T10:59:18;99018.78;;;18.86;64.83
25947;BME280;13745;51.470;9.894;2024-02-16T11:02:03;99008.47;;;20.82;61.18
25947;BME280;13745;51.470;9.894;2024-02-16T11:04:48;99015.88;;;21.18;60.49
25947;BME280;13745;51.470;9.894;2024-02-16T11:07:37;99001.72;;;21.62;59.65
25947;BME280;13745;51.470;9.894;2024-02-16T11:10:22;99007.72;;;21.64;58.86
25947;BME280;13745;51.470;9.894;2024-02-16T11:13:08;99005.81;;;21.66;58.42
25947;BME280;13745;51.470;9.894;2024-02-16T11:15:57;99010.94;;;22.09;57.36
25947;BME280;13745;51.470;9.894;2024-02-16T11:18:45;99006.16;;;23.05;55.96
25947;BME280;13745;51.470;9.894;2024-02-16T11:21:32;99010.59;;;22.66;56.36
25947;BME280;13745;51.470;9.894;2024-02-16T11:24:18;99017.72;;;21.59;57.76
25947;BME280;13745;51.470;9.894;2024-02-16T11:27:08;99023.53;;;20.80;60.10
25947;BME280;13745;51.470;9.894;2024-02-16T11:29:54;99036.56;;;20.23;61.11
25947;BME280;13745;51.470;9.894;2024-02-16T11:32:46;99027.84;;;20.23;60.88
25947;BME280;13745;51.470;9.894;2024-02-16T11:35:31;99031.91;;;20.28;60.90
25947;BME280;13745;51.470;9.894;2024-02-16T11:38:16;99029.75;;;21.36;59.03
25947;BME280;13745;51.470;9.894;2024-02-16T11:41:04;99014.31;;;26.23;51.55
25947;BME280;13745;51.470;9.894;2024-02-16T11:43:49;99026.75;;;30.29;45.54
25947;BME280;13745;51.470;9.894;2024-02-16T11:46:36;99022.81;;;32.44;42.04
25947;BME280;13745;51.470;9.894;2024-02-16T11:49:21;99012.31;;;34.45;39.86
25947;BME280;13745;51.470;9.894;2024-02-16T11:52:07;99015.84;;;35.13;38.61
25947;BME280;13745;51.470;9.894;2024-02-16T11:54:52;99008.53;;;34.31;38.81
25947;BME280;13745;51.470;9.894;2024-02-16T11:57:38;99010.09;;;31.63;41.48
25947;BME280;13745;51.470;9.894;2024-02-16T12:00:23;99013.22;;;29.49;43.39
25947;BME280;13745;51.470;9.894;2024-02-16T12:03:11;99009.06;;;27.76;45.83
25947;BME280;13745;51.470;9.894;2024-02-16T12:05:57;99017.09;;;26.53;47.43
25947;BME280;13745;51.470;9.894;2024-02-16T12:08:43;99007.34;;;24.79;49.57
25947;BME280;13745;51.470;9.894;2024-02-16T12:11:28;99002.13;;;23.61;51.47
25947;BME280;13745;51.470;9.894;2024-02-16T12:14:13;99006.09;;;25.62;48.88
25947;BME280;13745;51.470;9.894;2024-02-16T12:16:59;99011.00;;;26.42;47.42
25947;BME280;13745;51.470;9.894;2024-02-16T12:19:46;99013.75;;;25.87;47.85
25947;BME280;13745;51.470;9.894;2024-02-16T12:22:31;99008.09;;;25.15;49.26
25947;BME280;13745;51.470;9.894;2024-02-16T12:25:16;99005.88;;;24.18;50.30
25947;BME280;13745;51.470;9.894;2024-02-16T12:28:01;99008.50;;;23.46;51.02
25947;BME280;13745;51.470;9.894;2024-02-16T12:30:47;99013.03;;;22.56;52.81
25947;BME280;13745;51.470;9.894;2024-02-16T12:33:33;99019.22;;;21.90;54.40
25947;BME280;13745;51.470;9.894;2024-02-16T12:36:19;99018.53;;;21.74;54.21
25947;BME280;13745;51.470;9.894;2024-02-16T12:39:06;99029.63;;;21.09;55.20
25947;BME280;13745;51.470;9.894;2024-02-16T12:41:53;99038.56;;;20.34;56.80
25947;BME280;13745;51.470;9.894;2024-02-16T12:44:38;99029.19;;;19.84;58.00
25947;BME280;13745;51.470;9.894;2024-02-16T12:47:23;99041.56;;;19.50;58.66
25947;BME280;13745;51.470;9.894;2024-02-16T12:50:08;99039.50;;;19.08;59.48
25947;BME280;13745;51.470;9.894;2024-02-16T12:52:55;99039.50;;;18.75;60.41
25947;BME280;13745;51.470;9.894;2024-02-16T12:55:41;99035.97;;;18.41;61.32
25947;BME280;13745;51.470;9.894;2024-02-16T12:58:26;99031.72;;;18.21;61.73
25947;BME280;13745;51.470;9.894;2024-02-16T13:01:11;99025.59;;;18.04;62.17
25947;BME280;13745;51.470;9.894;2024-02-16T13:03:57;99032.31;;;17.92;62.83
25947;BME280;13745;51.470;9.894;2024-02-16T13:06:41;99042.41;;;17.82;63.22
25947;BME280;13745;51.470;9.894;2024-02-16T13:09:30;99041.25;;;17.69;63.86
25947;BME280;13745;51.470;9.894;2024-02-16T13:12:15;99049.84;;;17.54;64.17
25947;BME280;13745;51.470;9.894;2024-02-16T13:15:00;99040.94;;;17.39;64.91
25947;BME280;13745;51.470;9.894;2024-02-16T13:17:47;99035.41;;;17.26;65.58
25947;BME280;13745;51.470;9.894;2024-02-16T13:20:32;99047.38;;;17.13;66.04
25947;BME280;13745;51.470;9.894;2024-02-16T13:23:19;99054.84;;;17.02;66.86
25947;BME280;13745;51.470;9.894;2024-02-16T13:26:05;99051.88;;;16.91;67.07
25947;BME280;13745;51.470;9.894;2024-02-16T13:28:51;99049.53;;;16.84;67.37
25947;BME280;13745;51.470;9.894;2024-02-16T13:31:36;99054.97;;;16.80;67.54
25947;BME280;13745;51.470;9.894;2024-02-16T13:34:23;99049.00;;;16.76;67.78
25947;BME280;13745;51.470;9.894;2024-02-16T13:37:10;99050.78;;;16.76;68.00
25947;BME280;13745;51.470;9.894;2024-02-16T13:39:56;99052.56;;;16.75;68.07
25947;BME280;13745;51.470;9.894;2024-02-16T13:42:42;99061.91;;;16.81;68.19
25947;BME280;13745;51.470;9.894;2024-02-16T13:45:29;99052.38;;;16.99;67.88
25947;BME280;13745;51.470;9.894;2024-02-16T13:48:30;99058.75;;;17.12;67.58
25947;BME280;13745;51.470;9.894;2024-02-16T13:51:15;99050.13;;;17.10;67.81
25947;BME280;13745;51.470;9.894;2024-02-16T13:54:00;99053.09;;;17.02;68.08
25947;BME280;13745;51.470;9.894;2024-02-16T13:56:45;99058.88;;;16.90;68.33
25947;BME280;13745;51.470;9.894;2024-02-16T13:59:31;99082.19;;;16.76;68.87
25947;BME280;13745;51.470;9.894;2024-02-16T14:02:17;99073.00;;;16.66;69.35
25947;BME280;13745;51.470;9.894;2024-02-16T14:05:03;99079.50;;;16.57;69.56
25947;BME280;13745;51.470;9.894;2024-02-16T14:07:48;99082.50;;;16.48;70.09
25947;BME280;13745;51.470;9.894;2024-02-16T14:10:33;99081.31;;;16.35;70.79
25947;BME280;13745;51.470;9.894;2024-02-16T14:13:18;99084.47;;;16.21;71.15
25947;BME280;13745;51.470;9.894;2024-02-16T14:16:05;99078.84;;;16.10;71.73
25947;BME280;13745;51.470;9.894;2024-02-16T14:18:51;99083.53;;;16.01;72.45
25947;BME280;13745;51.470;9.894;2024-02-16T14:21:36;99091.50;;;15.98;72.77
25947;BME280;13745;51.470;9.894;2024-02-16T14:24:21;99101.22;;;15.95;73.13
25947;BME280;13745;51.470;9.894;2024-02-16T14:27:06;99104.13;;;15.87;73.62
25947;BME280;13745;51.470;9.894;2024-02-16T14:29:51;99097.56;;;15.77;73.83
25947;BME280;13745;51.470;9.894;2024-02-16T14:32:37;99096.25;;;15.67;74.40
25947;BME280;13745;51.470;9.894;2024-02-16T14:35:23;99101.72;;;15.59;74.56
25947;BME280;13745;51.470;9.894;2024-02-16T14:38:08;99113.25;;;15.54;75.08